KBMG

Monroe County Airport

Bloomington, Indiana, USA
METAR KBMG 230253Z AUTO 00000KT 10SM BKN060 21/18 A3003 RMK AO2 SLP162 T02060183 53017
Observed Flight Rules
May-23 @ 02:53 UTC (25 minutes ago) Visual Flight Rules
Visibility Clouds
10 miles
  • Broken at 6,000' AGL
Temperatures Readings
Current 21°C / 70°F
Dewpoint 18°C / 64°F
Humidity 83%
Altimeter 30.03" Hg
Pressure 1016.2 hPa
Elevation 257
METAR KBMG 230253Z AUTO 00000KT 10SM BKN060 21/18 A3003 RMK AO2 SLP162 T02060183 53017
Observed Flight Rules
May-23 @ 02:53 UTC
(25 minutes ago)
VFR
Clouds
  • Broken at 6,000' AGL
Temperature Dewpoint
21°C / 70°F 18°C / 64°F
Humidity Altimeter Pressure
83% 30.03" Hg 1016.2 hPa